Terminal Aerodrome Forecast
Issued by NWS Sioux Falls, SD

Home | Current Version | Previous Version | Text Only | Print | Product List | Glossary On
Versions: 1 2 3 4 5 6 7 8 9 10 11 12 13 14 15 16 17 18 19 20 21 22 23 24 25 26 27 28 29 30 31 32
000
FTUS43 KFSD 160532
TAFSUX
TAF
KSUX 160532Z 1606/1706 33026G35KT P6SM -SN OVC018
      TEMPO 1606/1607 4SM -SN SCT018 OVC025
     FM160800 34021G33KT P6SM OVC018
     FM161100 34016G27KT P6SM OVC018
     FM162100 33014KT P6SM SCT018
     FM170000 33008KT P6SM SKC=

USA.gov is the U.S. government's official web portal to all federal, state and local government web resources and services.